Time;durP1;ratioP1;P1;durP2;ratioP2;P2;SDS_P1;SDS_P2;PMS_P1;PMS_P2;Temp;Humidity;BMP_temperature;BMP_pressure;BME280_temperature;BME280_humidity;BME280_pressure;Samples;Min_cycle;Max_cycle;Signal;HPM_P1;HPM_P2
2022/06/27 00:00:29;;;;;;;7.20;6.70;;;;;;;;;;4986032;28;20455;-58
2022/06/27 00:02:54;;;;;;;6.90;6.25;;;;;;;;;;4985258;28;20026;-60
2022/06/27 00:05:19;;;;;;;7.38;6.85;;;;;;;;;;4984475;28;20088;-60
2022/06/27 00:07:45;;;;;;;7.60;7.10;;;;;;;;;;4986986;28;20424;-59
2022/06/27 00:10:10;;;;;;;7.25;6.63;;;;;;;;;;4986987;28;20038;-60
2022/06/27 00:12:36;;;;;;;7.30;6.70;;;;;;;;;;4987044;28;20034;-59
2022/06/27 00:15:02;;;;;;;7.53;6.93;;;;;;;;;;4988628;28;20117;-60
2022/06/27 00:17:27;;;;;;;6.85;6.35;;;;;;;;;;4986155;28;20182;-59
2022/06/27 00:19:53;;;;;;;7.35;6.85;;;;;;;;;;4984070;28;20555;-58
2022/06/27 00:22:18;;;;;;;7.55;7.00;;;;;;;;;;4984645;28;20026;-59
2022/06/27 00:24:43;;;;;;;6.90;6.40;;;;;;;;;;4984485;28;20515;-59
2022/06/27 00:27:09;;;;;;;7.40;6.80;;;;;;;;;;4988094;28;20026;-60
2022/06/27 00:29:34;;;;;;;7.38;6.78;;;;;;;;;;4986681;28;20423;-60
2022/06/27 00:31:59;;;;;;;6.80;6.40;;;;;;;;;;4988754;28;20022;-59
2022/06/27 00:34:24;;;;;;;7.40;6.80;;;;;;;;;;4986839;28;20110;-58
2022/06/27 00:36:50;;;;;;;7.70;7.15;;;;;;;;;;4986209;28;20641;-59
2022/06/27 00:39:15;;;;;;;7.20;6.70;;;;;;;;;;4987133;28;20668;-59
2022/06/27 00:41:40;;;;;;;8.07;6.68;;;;;;;;;;4984495;28;20437;-59
2022/06/27 00:44:06;;;;;;;6.47;6.07;;;;;;;;;;4984555;28;20022;-59
2022/06/27 00:46:31;;;;;;;7.25;6.65;;;;;;;;;;4986289;28;20031;-58
2022/06/27 00:48:56;;;;;;;7.68;6.95;;;;;;;;;;4986598;28;20041;-58
2022/06/27 00:51:24;;;;;;;6.90;6.32;;;;;;;;;;4987943;28;20030;-59
2022/06/27 00:53:49;;;;;;;6.55;6.13;;;;;;;;;;4985995;28;20046;-58
2022/06/27 00:56:15;;;;;;;6.93;6.35;;;;;;;;;;4986892;28;20015;-58
2022/06/27 00:58:40;;;;;;;7.43;6.70;;;;;;;;;;4987522;28;20034;-59
2022/06/27 01:01:05;;;;;;;7.40;6.75;;;;;;;;;;4986345;28;20030;-60
2022/06/27 01:03:31;;;;;;;7.60;7.10;;;;;;;;;;4987084;28;20069;-59
2022/06/27 01:05:56;;;;;;;8.13;7.38;;;;;;;;;;4987524;28;20058;-59
2022/06/27 01:08:23;;;;;;;6.78;6.18;;;;;;;;;;4984401;28;20054;-59
2022/06/27 01:10:48;;;;;;;6.82;6.22;;;;;;;;;;4984047;28;20111;-59
2022/06/27 01:13:14;;;;;;;7.50;6.82;;;;;;;;;;4984382;28;20126;-59
2022/06/27 01:15:42;;;;;;;10.25;6.75;;;;;;;;;;4985166;28;20049;-59
2022/06/27 01:18:08;;;;;;;6.95;6.35;;;;;;;;;;4987771;28;20030;-58
2022/06/27 01:20:33;;;;;;;7.38;6.68;;;;;;;;;;4987293;28;20022;-58
2022/06/27 01:22:59;;;;;;;6.88;6.28;;;;;;;;;;4984111;28;20092;-58
2022/06/27 01:25:24;;;;;;;8.18;7.57;;;;;;;;;;4986356;28;20451;-58
2022/06/27 01:27:50;;;;;;;6.82;6.18;;;;;;;;;;4985736;28;20053;-58
2022/06/27 01:30:15;;;;;;;7.28;6.65;;;;;;;;;;4986141;28;20062;-58
2022/06/27 01:32:42;;;;;;;6.97;6.47;;;;;;;;;;4985795;28;20026;-59
2022/06/27 01:35:07;;;;;;;8.77;6.80;;;;;;;;;;4987238;28;20026;-59
2022/06/27 01:37:33;;;;;;;7.38;6.68;;;;;;;;;;4985810;28;20970;-59
2022/06/27 01:40:00;;;;;;;7.35;6.85;;;;;;;;;;4989860;28;20030;-59
2022/06/27 01:42:25;;;;;;;7.13;6.55;;;;;;;;;;4989632;28;20117;-58
2022/06/27 01:44:51;;;;;;;6.93;6.45;;;;;;;;;;4988159;28;20370;-58
2022/06/27 01:47:16;;;;;;;12.70;7.10;;;;;;;;;;4989657;28;20586;-58
2022/06/27 01:49:41;;;;;;;7.43;6.82;;;;;;;;;;4990733;28;20019;-58
2022/06/27 01:52:07;;;;;;;6.75;6.28;;;;;;;;;;4989321;28;20571;-58
2022/06/27 01:54:33;;;;;;;6.65;6.15;;;;;;;;;;4988340;28;20464;-59
2022/06/27 01:56:59;;;;;;;7.28;6.65;;;;;;;;;;4989535;28;20506;-58
2022/06/27 01:59:27;;;;;;;7.88;7.30;;;;;;;;;;4989746;28;20466;-58
2022/06/27 02:01:52;;;;;;;6.60;6.07;;;;;;;;;;4985477;28;20129;-58
2022/06/27 02:04:17;;;;;;;7.22;6.72;;;;;;;;;;4986436;28;20500;-58
2022/06/27 02:06:44;;;;;;;7.55;6.90;;;;;;;;;;4965962;28;20440;-59
2022/06/27 02:09:10;;;;;;;6.85;6.38;;;;;;;;;;4987489;28;20491;-59
2022/06/27 02:11:36;;;;;;;6.13;5.80;;;;;;;;;;4987852;28;20022;-59
2022/06/27 02:14:02;;;;;;;7.18;6.53;;;;;;;;;;4987178;28;20495;-58
2022/06/27 02:16:27;;;;;;;7.22;6.63;;;;;;;;;;4991167;28;20019;-58
2022/06/27 02:18:53;;;;;;;7.15;6.65;;;;;;;;;;4989101;28;20480;-60
2022/06/27 02:21:22;;;;;;;7.90;6.85;;;;;;;;;;4990024;28;20050;-60
2022/06/27 02:23:48;;;;;;;7.80;7.20;;;;;;;;;;4987438;28;20057;-59
2022/06/27 02:26:15;;;;;;;7.65;6.93;;;;;;;;;;4989257;28;20138;-59
2022/06/27 02:28:41;;;;;;;6.93;6.45;;;;;;;;;;4988784;28;20026;-59
2022/06/27 02:31:07;;;;;;;7.72;7.07;;;;;;;;;;4988743;28;20404;-59
2022/06/27 02:33:37;;;;;;;6.82;6.40;;;;;;;;;;4985387;28;20026;-59
2022/06/27 02:36:03;;;;;;;7.63;7.13;;;;;;;;;;4986657;28;20574;-60
2022/06/27 02:38:29;;;;;;;6.93;6.28;;;;;;;;;;4988127;28;20037;-59
2022/06/27 02:40:56;;;;;;;7.43;6.93;;;;;;;;;;4988895;28;20034;-59
2022/06/27 02:43:22;;;;;;;8.50;7.70;;;;;;;;;;4985822;28;20026;-60
2022/06/27 02:45:48;;;;;;;7.57;6.97;;;;;;;;;;4987673;28;20033;-59
2022/06/27 02:48:16;;;;;;;7.30;6.70;;;;;;;;;;4989531;28;20029;-59
2022/06/27 02:50:41;;;;;;;7.18;6.65;;;;;;;;;;4988032;28;20054;-60
2022/06/27 02:53:09;;;;;;;7.68;7.15;;;;;;;;;;4985426;28;20029;-59
2022/06/27 02:55:37;;;;;;;7.70;7.05;;;;;;;;;;4987620;28;20158;-59
2022/06/27 02:58:09;;;;;;;7.60;7.00;;;;;;;;;;4987896;28;20022;-59
2022/06/27 03:00:35;;;;;;;7.95;7.35;;;;;;;;;;4985407;28;20076;-59
2022/06/27 03:03:01;;;;;;;7.30;6.80;;;;;;;;;;4984421;28;20054;-59
2022/06/27 03:05:27;;;;;;;7.50;6.80;;;;;;;;;;4987586;28;20085;-59
2022/06/27 03:07:52;;;;;;;8.68;7.88;;;;;;;;;;4986853;28;20488;-58
2022/06/27 03:10:17;;;;;;;7.55;6.40;;;;;;;;;;4985913;28;20026;-64
2022/06/27 03:12:42;;;;;;;7.47;6.90;;;;;;;;;;4984750;28;20137;-58
2022/06/27 03:15:08;;;;;;;6.93;6.43;;;;;;;;;;4986764;28;20392;-58
2022/06/27 03:17:33;;;;;;;7.60;7.00;;;;;;;;;;4988782;28;20026;-59
2022/06/27 03:19:58;;;;;;;8.00;7.40;;;;;;;;;;4986474;28;20429;-59
2022/06/27 03:22:24;;;;;;;8.10;7.40;;;;;;;;;;4985568;28;20025;-59
2022/06/27 03:24:49;;;;;;;7.32;6.82;;;;;;;;;;4988674;28;20391;-60
2022/06/27 03:27:14;;;;;;;8.25;6.80;;;;;;;;;;4989119;28;20026;-60
2022/06/27 03:29:40;;;;;;;9.52;8.73;;;;;;;;;;4986490;28;20022;-60
2022/06/27 03:32:05;;;;;;;12.55;11.43;;;;;;;;;;4986147;28;20023;-61
2022/06/27 03:34:31;;;;;;;12.13;11.02;;;;;;;;;;4987130;28;20053;-60
2022/06/27 03:36:56;;;;;;;13.20;12.02;;;;;;;;;;4986501;28;20116;-61
2022/06/27 03:39:22;;;;;;;12.75;11.55;;;;;;;;;;4982698;28;20456;-60
2022/06/27 03:41:47;;;;;;;11.77;10.80;;;;;;;;;;4985181;28;20026;-60
2022/06/27 03:44:13;;;;;;;11.80;10.70;;;;;;;;;;4986313;28;20132;-61
2022/06/27 03:46:38;;;;;;;11.27;10.30;;;;;;;;;;4986015;28;20534;-61
2022/06/27 03:51:48;;;;;;;7.63;7.03;;;;;;;;;;4985231;28;20087;-61
2022/06/27 03:54:13;;;;;;;8.18;7.47;;;;;;;;;;4986577;28;20448;-63
2022/06/27 03:56:38;;;;;;;7.85;7.13;;;;;;;;;;4986311;28;20027;-61
2022/06/27 03:59:04;;;;;;;7.78;7.28;;;;;;;;;;4985463;28;20031;-60
2022/06/27 04:01:29;;;;;;;9.07;7.13;;;;;;;;;;4986357;28;20403;-61
2022/06/27 04:03:54;;;;;;;7.50;6.80;;;;;;;;;;4987385;28;20030;-61
2022/06/27 04:06:19;;;;;;;8.07;7.38;;;;;;;;;;4985802;28;20029;-61
2022/06/27 04:08:45;;;;;;;9.73;8.85;;;;;;;;;;4984647;28;20061;-61
2022/06/27 04:11:10;;;;;;;9.77;8.73;;;;;;;;;;4985935;28;20030;-61
2022/06/27 04:13:35;;;;;;;9.38;8.55;;;;;;;;;;4985203;28;20034;-61
2022/06/27 04:16:01;;;;;;;8.82;7.65;;;;;;;;;;4984077;28;20499;-61
2022/06/27 04:18:26;;;;;;;8.25;7.20;;;;;;;;;;4985200;28;20029;-61
2022/06/27 04:20:51;;;;;;;7.10;6.50;;;;;;;;;;4986204;28;20896;-61
2022/06/27 04:23:17;;;;;;;7.93;6.60;;;;;;;;;;4987562;28;20514;-61
2022/06/27 04:25:42;;;;;;;7.47;6.82;;;;;;;;;;4985205;28;20113;-61
2022/06/27 04:28:07;;;;;;;8.20;6.90;;;;;;;;;;4983960;28;20825;-61
2022/06/27 04:30:33;;;;;;;7.07;6.40;;;;;;;;;;4985519;28;20031;-61
2022/06/27 04:32:59;;;;;;;8.52;5.63;;;;;;;;;;4985686;28;20027;-61
2022/06/27 04:35:25;;;;;;;6.45;5.85;;;;;;;;;;4982440;28;20042;-60
2022/06/27 04:37:50;;;;;;;5.57;5.10;;;;;;;;;;4984192;28;20153;-60
2022/06/27 04:40:19;;;;;;;4.85;4.55;;;;;;;;;;4988080;28;20037;-60
2022/06/27 04:42:45;;;;;;;6.28;5.53;;;;;;;;;;4986207;28;20507;-60
2022/06/27 04:45:14;;;;;;;7.55;5.78;;;;;;;;;;4983957;28;20038;-61
2022/06/27 04:47:43;;;;;;;7.30;4.70;;;;;;;;;;4984760;28;20033;-60
2022/06/27 04:50:09;;;;;;;5.07;4.50;;;;;;;;;;4986662;28;20141;-65
2022/06/27 04:52:34;;;;;;;5.30;4.80;;;;;;;;;;4986665;28;20030;-61
2022/06/27 04:55:00;;;;;;;5.03;4.55;;;;;;;;;;4982747;28;20042;-61
2022/06/27 04:57:26;;;;;;;7.35;5.28;;;;;;;;;;4986284;28;20033;-63
2022/06/27 04:59:51;;;;;;;6.80;4.53;;;;;;;;;;4986686;28;20644;-61
2022/06/27 05:02:18;;;;;;;6.13;4.97;;;;;;;;;;4985565;28;20032;-66
2022/06/27 05:04:43;;;;;;;5.57;4.47;;;;;;;;;;4983471;28;20038;-68
2022/06/27 05:07:09;;;;;;;5.25;4.25;;;;;;;;;;4985725;28;20034;-65
2022/06/27 05:09:34;;;;;;;4.40;4.10;;;;;;;;;;4985731;28;20069;-66
2022/06/27 05:11:59;;;;;;;4.47;4.15;;;;;;;;;;4985983;28;20010;-62
2022/06/27 05:14:24;;;;;;;8.93;4.40;;;;;;;;;;4987678;28;20476;-63
2022/06/27 05:16:50;;;;;;;5.82;4.57;;;;;;;;;;4987155;28;20034;-63
2022/06/27 05:19:15;;;;;;;6.95;4.55;;;;;;;;;;4988106;28;20387;-63
2022/06/27 05:21:40;;;;;;;5.43;4.78;;;;;;;;;;4987177;28;20145;-64
2022/06/27 05:24:06;;;;;;;4.47;4.07;;;;;;;;;;4986699;28;20860;-63
2022/06/27 05:26:31;;;;;;;4.88;3.60;;;;;;;;;;4988274;28;20029;-63
2022/06/27 05:28:57;;;;;;;5.35;4.53;;;;;;;;;;4989850;28;20069;-63
2022/06/27 05:31:22;;;;;;;4.85;4.32;;;;;;;;;;4987656;28;20464;-63
2022/06/27 05:33:47;;;;;;;5.78;4.32;;;;;;;;;;4982107;28;20479;-63
2022/06/27 05:36:12;;;;;;;4.20;3.90;;;;;;;;;;4989816;28;20133;-63
2022/06/27 05:38:39;;;;;;;3.75;3.53;;;;;;;;;;4988823;28;20529;-63
2022/06/27 05:41:04;;;;;;;7.43;4.70;;;;;;;;;;4987227;28;20451;-63
2022/06/27 05:43:30;;;;;;;5.97;4.45;;;;;;;;;;4987268;28;20080;-63
2022/06/27 05:45:56;;;;;;;6.55;3.70;;;;;;;;;;4989693;28;20039;-63
2022/06/27 05:48:21;;;;;;;4.30;4.00;;;;;;;;;;4987102;28;20076;-63
2022/06/27 05:50:47;;;;;;;5.10;4.38;;;;;;;;;;4986251;28;20029;-63
2022/06/27 05:53:12;;;;;;;4.72;4.32;;;;;;;;;;4987612;28;20829;-63
2022/06/27 06:04:47;;;;;;;4.32;4.00;;;;;;;;;;4987926;28;20028;-63
2022/06/27 06:07:13;;;;;;;10.18;4.30;;;;;;;;;;4967806;28;20052;-63
2022/06/27 06:09:38;;;;;;;9.90;4.72;;;;;;;;;;4986513;28;20058;-63
2022/06/27 06:12:04;;;;;;;7.18;4.78;;;;;;;;;;4985184;28;20025;-63
2022/06/27 06:14:29;;;;;;;8.60;4.15;;;;;;;;;;4987471;28;20036;-63
2022/06/27 06:16:54;;;;;;;5.68;4.32;;;;;;;;;;4989064;28;20919;-63
2022/06/27 06:19:20;;;;;;;10.73;4.53;;;;;;;;;;4984120;28;20032;-63
2022/06/27 06:21:45;;;;;;;8.95;4.15;;;;;;;;;;4988448;28;20073;-63
2022/06/27 06:24:11;;;;;;;7.18;4.50;;;;;;;;;;4989317;28;20034;-62
2022/06/27 06:26:36;;;;;;;7.90;4.55;;;;;;;;;;4988550;28;20109;-63
2022/06/27 06:29:12;;;;;;;6.53;4.95;;;;;;;;;;4985543;28;20094;-63
2022/06/27 06:31:38;;;;;;;9.15;4.60;;;;;;;;;;4987214;28;20026;-63
2022/06/27 06:34:04;;;;;;;5.82;4.40;;;;;;;;;;4987417;28;20038;-63
2022/06/27 06:36:30;;;;;;;5.10;4.65;;;;;;;;;;4986300;28;20139;-63
2022/06/27 06:38:57;;;;;;;5.05;4.25;;;;;;;;;;4985975;28;20469;-63
2022/06/27 06:41:22;;;;;;;7.43;4.63;;;;;;;;;;4960595;28;20026;-63
2022/06/27 06:43:48;;;;;;;6.78;5.10;;;;;;;;;;4986626;28;20691;-63
2022/06/27 06:46:13;;;;;;;4.97;4.57;;;;;;;;;;4987540;28;20026;-64
2022/06/27 06:48:40;;;;;;;4.93;4.38;;;;;;;;;;4986870;28;20475;-63
2022/06/27 06:51:07;;;;;;;6.28;5.13;;;;;;;;;;4988754;28;20033;-63
2022/06/27 06:53:32;;;;;;;6.55;5.32;;;;;;;;;;4987028;28;20026;-63
2022/06/27 06:56:00;;;;;;;5.05;4.75;;;;;;;;;;4985383;28;20096;-63
2022/06/27 06:58:26;;;;;;;8.80;5.40;;;;;;;;;;4985952;28;20045;-62
2022/06/27 07:00:51;;;;;;;9.57;4.68;;;;;;;;;;4985598;28;20026;-63
2022/06/27 07:03:18;;;;;;;12.88;4.97;;;;;;;;;;4985633;28;20452;-63
2022/06/27 07:05:44;;;;;;;5.70;5.18;;;;;;;;;;4986090;28;20041;-63
2022/06/27 07:08:10;;;;;;;5.47;4.72;;;;;;;;;;4985692;28;20054;-64
2022/06/27 07:10:35;;;;;;;11.00;4.82;;;;;;;;;;4988625;28;20034;-63
2022/06/27 07:13:01;;;;;;;5.10;4.65;;;;;;;;;;4966085;28;20418;-63
2022/06/27 07:15:26;;;;;;;9.32;5.25;;;;;;;;;;4962943;28;20038;-63
2022/06/27 07:17:52;;;;;;;5.60;4.47;;;;;;;;;;4984276;28;20025;-63
2022/06/27 07:20:20;;;;;;;5.90;5.40;;;;;;;;;;4986186;28;20065;-63
2022/06/27 07:22:49;;;;;;;5.30;4.53;;;;;;;;;;4984912;28;20277;-63
2022/06/27 07:25:15;;;;;;;5.57;4.57;;;;;;;;;;4985494;28;20033;-63
2022/06/27 07:27:42;;;;;;;6.57;4.55;;;;;;;;;;4986069;28;20550;-63
2022/06/27 07:30:09;;;;;;;5.55;4.47;;;;;;;;;;4986293;28;20092;-63
2022/06/27 07:32:35;;;;;;;5.55;4.88;;;;;;;;;;4986031;28;20022;-63
2022/06/27 07:35:01;;;;;;;5.80;4.80;;;;;;;;;;4960195;28;20042;-62
2022/06/27 07:37:27;;;;;;;5.00;4.53;;;;;;;;;;4985180;28;20030;-63
2022/06/27 07:39:53;;;;;;;7.25;4.43;;;;;;;;;;4987803;28;20034;-63
2022/06/27 07:42:19;;;;;;;5.70;4.80;;;;;;;;;;4987060;28;20041;-63
2022/06/27 07:44:44;;;;;;;5.47;5.00;;;;;;;;;;4983359;28;20399;-64
2022/06/27 07:47:10;;;;;;;5.88;4.35;;;;;;;;;;4983517;28;20030;-64
2022/06/27 07:49:35;;;;;;;5.28;4.88;;;;;;;;;;4985176;28;20085;-62
2022/06/27 07:52:00;;;;;;;5.47;4.60;;;;;;;;;;4985761;28;20437;-64
2022/06/27 07:54:27;;;;;;;6.78;5.38;;;;;;;;;;4985578;28;20053;-63
2022/06/27 07:56:52;;;;;;;7.55;4.68;;;;;;;;;;4986232;28;20037;-63
2022/06/27 07:59:18;;;;;;;7.65;5.00;;;;;;;;;;4987750;28;20433;-62
2022/06/27 08:01:44;;;;;;;5.60;4.68;;;;;;;;;;4984801;28;20143;-62
2022/06/27 08:04:11;;;;;;;6.60;4.97;;;;;;;;;;4985396;28;20035;-62
2022/06/27 08:06:37;;;;;;;8.35;5.68;;;;;;;;;;4987746;28;20065;-62
2022/06/27 08:09:06;;;;;;;5.93;5.18;;;;;;;;;;4982122;28;20412;-63
2022/06/27 08:11:32;;;;;;;5.03;4.63;;;;;;;;;;4966636;28;20563;-62
2022/06/27 08:14:03;;;;;;;7.70;4.68;;;;;;;;;;4965635;28;20070;-62
2022/06/27 08:16:28;;;;;;;4.72;4.38;;;;;;;;;;4968625;28;20105;-62
2022/06/27 08:18:54;;;;;;;6.32;4.53;;;;;;;;;;4967228;28;20034;-62
2022/06/27 08:21:21;;;;;;;5.75;5.28;;;;;;;;;;4964559;28;20125;-62
2022/06/27 08:23:48;;;;;;;5.10;4.05;;;;;;;;;;4966950;28;20045;-63
2022/06/27 08:26:14;;;;;;;6.45;5.03;;;;;;;;;;4968031;28;20510;-62
2022/06/27 08:28:40;;;;;;;6.63;4.40;;;;;;;;;;4982282;28;20054;-62
2022/06/27 08:31:07;;;;;;;4.78;4.32;;;;;;;;;;4966208;28;20061;-62
2022/06/27 08:33:32;;;;;;;5.07;4.60;;;;;;;;;;4966091;28;20037;-62
2022/06/27 08:35:58;;;;;;;7.97;4.75;;;;;;;;;;4960666;28;20042;-62
2022/06/27 08:38:25;;;;;;;6.78;5.00;;;;;;;;;;4966606;28;20213;-62
2022/06/27 08:40:52;;;;;;;5.60;4.25;;;;;;;;;;4964920;28;20466;-65
2022/06/27 08:43:17;;;;;;;7.65;4.65;;;;;;;;;;4966656;28;20179;-62
2022/06/27 08:45:44;;;;;;;8.30;4.88;;;;;;;;;;4967549;28;20126;-61
2022/06/27 08:48:13;;;;;;;6.40;5.00;;;;;;;;;;4968517;28;20185;-62
2022/06/27 08:50:38;;;;;;;9.85;5.65;;;;;;;;;;4967579;28;20168;-61
2022/06/27 08:53:04;;;;;;;8.48;4.80;;;;;;;;;;4968015;28;20033;-62
2022/06/27 08:55:34;;;;;;;9.13;4.60;;;;;;;;;;4969556;28;20557;-62
2022/06/27 08:58:03;;;;;;;7.85;4.82;;;;;;;;;;4967220;28;20158;-61
2022/06/27 09:00:30;;;;;;;5.30;4.78;;;;;;;;;;4968683;28;20493;-62
2022/06/27 09:02:55;;;;;;;5.20;4.65;;;;;;;;;;4971229;28;20129;-62
2022/06/27 09:05:21;;;;;;;6.18;4.55;;;;;;;;;;4970019;28;20472;-61
2022/06/27 09:07:52;;;;;;;6.68;3.85;;;;;;;;;;4972858;28;20069;-60
2022/06/27 09:10:22;;;;;;;4.70;3.97;;;;;;;;;;4988174;28;20030;-61
2022/06/27 09:12:53;;;;;;;6.18;4.20;;;;;;;;;;4987509;28;20026;-61
2022/06/27 09:15:19;;;;;;;5.15;4.63;;;;;;;;;;4986435;28;20113;-62
2022/06/27 09:17:44;;;;;;;6.05;4.88;;;;;;;;;;4986880;28;20105;-62
2022/06/27 09:20:10;;;;;;;7.90;5.32;;;;;;;;;;4970054;28;20026;-62
2022/06/27 09:22:35;;;;;;;11.05;5.00;;;;;;;;;;4988360;28;20053;-61
2022/06/27 09:25:04;;;;;;;9.35;4.60;;;;;;;;;;4992319;28;20041;-64
2022/06/27 09:27:41;;;;;;;6.78;4.65;;;;;;;;;;4987654;28;20018;-61
2022/06/27 09:33:16;;;;;;;7.50;4.45;;;;;;;;;;4987637;28;20112;-62
2022/06/27 09:36:07;;;;;;;7.65;5.28;;;;;;;;;;4930748;29;20126;-61
2022/06/27 09:38:33;;;;;;;6.30;4.82;;;;;;;;;;4930481;29;20055;-61
2022/06/27 09:40:59;;;;;;;11.30;6.22;;;;;;;;;;4912881;29;20052;-61
2022/06/27 09:43:27;;;;;;;5.97;5.35;;;;;;;;;;4930040;29;20074;-61
2022/06/27 09:45:53;;;;;;;13.07;4.75;;;;;;;;;;4932167;29;20138;-62
2022/06/27 09:48:18;;;;;;;5.07;4.65;;;;;;;;;;4916949;29;20035;-62
2022/06/27 09:50:45;;;;;;;5.93;4.95;;;;;;;;;;4912040;29;20463;-61
2022/06/27 09:53:10;;;;;;;6.13;4.20;;;;;;;;;;4929854;29;20031;-62
2022/06/27 09:55:36;;;;;;;7.47;4.72;;;;;;;;;;4932068;29;20052;-62
2022/06/27 09:58:03;;;;;;;5.05;4.50;;;;;;;;;;4929666;28;20063;-61
2022/06/27 10:00:29;;;;;;;5.82;4.55;;;;;;;;;;4928197;28;20533;-62
2022/06/27 10:02:55;;;;;;;5.63;5.10;;;;;;;;;;4929752;29;20031;-62
2022/06/27 10:05:21;;;;;;;8.07;4.55;;;;;;;;;;4912195;29;20401;-61
2022/06/27 10:07:56;;;;;;;6.20;4.65;;;;;;;;;;4975984;28;20082;-61
2022/06/27 10:10:22;;;;;;;5.70;5.20;;;;;;;;;;4986704;28;20493;-61
2022/06/27 10:13:00;;;;;;;8.60;4.70;;;;;;;;;;4988084;28;20033;-60
2022/06/27 10:15:27;;;;;;;7.35;4.15;;;;;;;;;;4988186;28;20396;-64
2022/06/27 10:17:52;;;;;;;5.20;4.70;;;;;;;;;;4987116;28;20460;-60
2022/06/27 10:20:20;;;;;;;5.70;4.50;;;;;;;;;;4987584;28;20045;-61
2022/06/27 10:23:03;;;;;;;7.30;4.25;;;;;;;;;;4986675;28;20022;-61
2022/06/27 10:25:29;;;;;;;6.07;4.40;;;;;;;;;;4988599;28;20026;-60
2022/06/27 10:28:18;;;;;;;5.18;4.78;;;;;;;;;;4988118;28;20443;-60
2022/06/27 10:30:51;;;;;;;7.20;4.43;;;;;;;;;;4977174;28;20044;-60
2022/06/27 10:33:25;;;;;;;6.60;4.63;;;;;;;;;;4991445;28;20042;-60
2022/06/27 10:35:54;;;;;;;4.78;4.30;;;;;;;;;;4987780;28;20041;-61
2022/06/27 10:38:21;;;;;;;5.05;4.63;;;;;;;;;;4987090;28;20237;-61
2022/06/27 10:40:46;;;;;;;5.57;5.00;;;;;;;;;;4988643;28;20023;-64
2022/06/27 10:43:31;;;;;;;10.48;4.68;;;;;;;;;;4954052;28;20045;-61
2022/06/27 10:45:58;;;;;;;6.53;5.25;;;;;;;;;;4984800;28;20034;-62
2022/06/27 10:48:33;;;;;;;6.63;4.72;;;;;;;;;;4977056;28;20045;-61
2022/06/27 10:51:21;;;;;;;8.02;4.25;;;;;;;;;;4985517;28;20022;-62
2022/06/27 10:53:48;;;;;;;8.15;4.90;;;;;;;;;;4985920;28;20030;-64
2022/06/27 10:56:31;;;;;;;4.13;3.80;;;;;;;;;;4984927;28;20091;-60
2022/06/27 10:59:01;;;;;;;7.90;4.97;;;;;;;;;;4987582;28;20030;-61
2022/06/27 11:01:26;;;;;;;7.30;5.28;;;;;;;;;;4986333;28;20030;-62
2022/06/27 11:03:52;;;;;;;5.70;4.32;;;;;;;;;;4986727;28;20507;-61
2022/06/27 11:06:17;;;;;;;6.13;4.43;;;;;;;;;;4985148;28;20030;-60
2022/06/27 11:08:44;;;;;;;5.60;4.53;;;;;;;;;;4986720;28;20054;-61
2022/06/27 11:11:14;;;;;;;10.40;4.45;;;;;;;;;;4971084;28;20039;-61
2022/06/27 11:13:48;;;;;;;5.50;4.85;;;;;;;;;;4987636;28;20030;-62
2022/06/27 11:16:18;;;;;;;4.72;4.30;;;;;;;;;;4983463;28;20038;-62
2022/06/27 11:18:44;;;;;;;4.75;4.35;;;;;;;;;;4983508;28;20029;-62
2022/06/27 11:21:10;;;;;;;5.20;4.65;;;;;;;;;;4984891;28;20473;-62
2022/06/27 11:23:56;;;;;;;5.57;4.28;;;;;;;;;;4966700;28;20046;-62
2022/06/27 11:26:23;;;;;;;4.50;4.10;;;;;;;;;;4984923;28;20041;-61
2022/06/27 11:34:16;;;;;;;5.20;4.45;;;;;;;;;;4972368;28;20440;-61
2022/06/27 11:36:41;;;;;;;6.40;4.88;;;;;;;;;;4969550;28;20030;-62
2022/06/27 11:39:07;;;;;;;5.18;4.65;;;;;;;;;;4986984;28;20153;-61
2022/06/27 11:41:37;;;;;;;4.45;4.05;;;;;;;;;;4987225;28;20026;-62
2022/06/27 11:44:06;;;;;;;4.32;4.03;;;;;;;;;;4983120;28;20037;-61
2022/06/27 11:46:32;;;;;;;5.22;4.60;;;;;;;;;;4985608;28;20223;-62
2022/06/27 11:48:59;;;;;;;5.43;4.95;;;;;;;;;;4984860;28;20469;-61
2022/06/27 11:51:31;;;;;;;5.18;4.68;;;;;;;;;;4985504;28;20135;-62
2022/06/27 11:53:59;;;;;;;5.25;4.78;;;;;;;;;;4967785;28;20460;-62
2022/06/27 11:56:26;;;;;;;7.50;5.45;;;;;;;;;;4987506;28;20536;-61
2022/06/27 11:58:52;;;;;;;6.90;4.88;;;;;;;;;;4988920;28;20406;-61
2022/06/27 12:01:18;;;;;;;10.15;4.95;;;;;;;;;;4986653;28;20538;-62
2022/06/27 12:04:03;;;;;;;6.80;4.82;;;;;;;;;;4983264;28;20026;-62
2022/06/27 12:06:28;;;;;;;7.88;4.93;;;;;;;;;;4983927;28;20052;-62
2022/06/27 12:09:03;;;;;;;7.82;4.72;;;;;;;;;;4987041;28;20058;-62
2022/06/27 12:11:29;;;;;;;6.63;4.63;;;;;;;;;;4984185;28;20029;-60
2022/06/27 12:14:01;;;;;;;9.57;5.13;;;;;;;;;;4984009;28;20026;-63
2022/06/27 12:16:26;;;;;;;6.30;4.88;;;;;;;;;;4986549;28;20038;-62
2022/06/27 12:18:53;;;;;;;5.15;4.65;;;;;;;;;;4985608;28;20030;-62
2022/06/27 12:21:19;;;;;;;6.35;4.70;;;;;;;;;;4984942;28;20022;-62
2022/06/27 12:23:45;;;;;;;6.25;4.43;;;;;;;;;;4983896;28;20085;-62
2022/06/27 12:26:10;;;;;;;6.32;5.55;;;;;;;;;;4985370;28;20026;-62
2022/06/27 12:28:36;;;;;;;7.25;4.65;;;;;;;;;;4987151;28;20045;-62
2022/06/27 12:31:01;;;;;;;5.68;4.40;;;;;;;;;;4982895;28;20627;-62
2022/06/27 12:33:27;;;;;;;5.50;5.03;;;;;;;;;;4966989;28;20038;-62
2022/06/27 12:35:52;;;;;;;5.00;4.60;;;;;;;;;;4985015;28;20144;-62
2022/06/27 12:38:17;;;;;;;7.07;5.03;;;;;;;;;;4985544;28;20392;-64
2022/06/27 12:40:43;;;;;;;6.72;6.03;;;;;;;;;;4967844;28;20424;-63
2022/06/27 12:43:08;;;;;;;7.05;4.60;;;;;;;;;;4985243;28;20030;-64
2022/06/27 12:45:34;;;;;;;7.80;5.25;;;;;;;;;;4984512;28;20647;-63
2022/06/27 12:48:02;;;;;;;8.73;5.43;;;;;;;;;;4983606;28;20392;-64
2022/06/27 12:50:27;;;;;;;7.10;5.90;;;;;;;;;;4985850;28;20034;-63
2022/06/27 12:52:53;;;;;;;5.75;5.22;;;;;;;;;;4985821;28;20037;-63
2022/06/27 12:55:18;;;;;;;6.15;5.55;;;;;;;;;;4984555;28;20038;-63
2022/06/27 12:57:43;;;;;;;8.02;5.05;;;;;;;;;;4985029;28;20757;-64
2022/06/27 13:00:09;;;;;;;5.78;4.45;;;;;;;;;;4984746;28;20485;-63
2022/06/27 13:02:34;;;;;;;6.50;4.90;;;;;;;;;;4985779;28;20439;-63
2022/06/27 13:04:59;;;;;;;6.20;4.97;;;;;;;;;;4986789;28;20081;-63
2022/06/27 13:07:25;;;;;;;7.22;5.05;;;;;;;;;;4983316;28;20157;-64
2022/06/27 13:09:51;;;;;;;6.35;5.00;;;;;;;;;;4984808;28;20030;-63
2022/06/27 13:12:16;;;;;;;6.18;5.65;;;;;;;;;;4966689;28;20084;-63
2022/06/27 13:14:42;;;;;;;5.30;5.00;;;;;;;;;;4985198;28;20485;-64
2022/06/27 13:17:07;;;;;;;5.72;4.55;;;;;;;;;;4968767;28;20485;-62
2022/06/27 13:19:32;;;;;;;7.10;5.65;;;;;;;;;;4985046;28;20050;-63
2022/06/27 13:21:57;;;;;;;5.97;5.32;;;;;;;;;;4985161;28;20413;-63
2022/06/27 13:24:23;;;;;;;6.70;5.68;;;;;;;;;;4965971;28;20030;-63
2022/06/27 13:26:48;;;;;;;5.03;4.63;;;;;;;;;;4984776;28;20058;-63
2022/06/27 13:29:13;;;;;;;6.10;5.22;;;;;;;;;;4984080;28;20432;-63
2022/06/27 13:31:39;;;;;;;6.95;4.57;;;;;;;;;;4986368;28;20389;-63
2022/06/27 13:34:04;;;;;;;5.53;4.93;;;;;;;;;;4985661;28;20077;-63
2022/06/27 13:36:29;;;;;;;6.60;4.72;;;;;;;;;;4986942;28;20022;-63
2022/06/27 13:38:54;;;;;;;6.55;5.45;;;;;;;;;;4988498;28;20468;-63
2022/06/27 13:41:20;;;;;;;6.57;4.72;;;;;;;;;;4989692;28;20037;-62
2022/06/27 13:43:45;;;;;;;10.30;6.43;;;;;;;;;;4966289;28;20088;-63
2022/06/27 13:46:10;;;;;;;6.28;4.60;;;;;;;;;;4968727;28;20333;-63
2022/06/27 13:48:35;;;;;;;7.10;4.22;;;;;;;;;;4986909;28;20056;-63
2022/06/27 13:51:01;;;;;;;6.60;5.45;;;;;;;;;;4989045;28;20046;-62
2022/06/27 13:53:26;;;;;;;6.68;5.28;;;;;;;;;;4988356;28;20026;-63
2022/06/27 13:55:51;;;;;;;6.13;4.95;;;;;;;;;;4987526;28;20046;-64
2022/06/27 13:58:16;;;;;;;8.50;5.20;;;;;;;;;;4986258;28;20523;-63
2022/06/27 14:00:42;;;;;;;6.55;5.25;;;;;;;;;;4986566;28;20037;-62
2022/06/27 14:03:07;;;;;;;12.68;5.18;;;;;;;;;;4987324;28;20065;-63
2022/06/27 14:05:32;;;;;;;10.85;4.57;;;;;;;;;;4987715;28;20197;-64
2022/06/27 14:07:58;;;;;;;5.15;4.65;;;;;;;;;;4987914;28;20461;-63
2022/06/27 14:10:24;;;;;;;8.15;4.93;;;;;;;;;;4990506;28;20041;-63
2022/06/27 14:12:50;;;;;;;7.85;5.03;;;;;;;;;;4988907;28;20075;-66
2022/06/27 14:15:17;;;;;;;7.65;5.38;;;;;;;;;;4986344;28;20045;-65
2022/06/27 14:17:44;;;;;;;12.65;5.15;;;;;;;;;;4988303;28;20538;-64
2022/06/27 14:20:10;;;;;;;9.15;4.82;;;;;;;;;;4988756;28;20503;-64
2022/06/27 14:22:36;;;;;;;7.60;5.28;;;;;;;;;;4986273;28;20022;-63
2022/06/27 14:25:02;;;;;;;6.40;4.82;;;;;;;;;;4985347;28;20877;-63
2022/06/27 14:27:27;;;;;;;5.78;5.10;;;;;;;;;;4985849;28;20038;-63
2022/06/27 14:29:53;;;;;;;6.75;6.25;;;;;;;;;;4988797;28;20026;-63
2022/06/27 14:32:18;;;;;;;7.57;5.45;;;;;;;;;;4962338;28;20096;-64
2022/06/27 14:34:43;;;;;;;7.25;4.50;;;;;;;;;;4985975;28;20034;-64
2022/06/27 14:37:09;;;;;;;5.72;4.72;;;;;;;;;;4986154;28;20857;-64
2022/06/27 14:39:35;;;;;;;9.05;5.90;;;;;;;;;;4985691;28;20038;-65
2022/06/27 14:42:00;;;;;;;5.93;5.38;;;;;;;;;;4969517;28;20034;-63
2022/06/27 14:44:26;;;;;;;7.53;5.35;;;;;;;;;;4988236;28;20030;-64
2022/06/27 14:46:53;;;;;;;6.40;5.78;;;;;;;;;;4989253;28;20376;-65
2022/06/27 14:49:18;;;;;;;8.10;5.22;;;;;;;;;;4986831;28;20059;-65
2022/06/27 14:51:43;;;;;;;6.38;5.35;;;;;;;;;;4985423;28;20423;-64
2022/06/27 14:54:10;;;;;;;6.72;5.18;;;;;;;;;;4990739;28;20129;-65
2022/06/27 14:56:36;;;;;;;5.85;5.25;;;;;;;;;;4988195;28;20021;-64